createdAt,value
2022-10-31T00:01:15.759Z,17.29
2022-10-31T00:03:42.626Z,17.34
2022-10-31T00:06:09.229Z,17.34
2022-10-31T00:08:35.940Z,17.32
2022-10-31T00:11:02.883Z,17.32
2022-10-31T00:13:29.673Z,17.22
2022-10-31T00:15:56.348Z,17.15
2022-10-31T00:18:22.941Z,17.16
2022-10-31T00:20:49.600Z,17.10
2022-10-31T00:23:16.228Z,17.07
2022-10-31T00:25:42.911Z,17.05
2022-10-31T00:28:11.979Z,17.03
2022-10-31T00:30:38.819Z,17.06
2022-10-31T00:33:06.202Z,17.13
2022-10-31T00:35:33.287Z,17.13
2022-10-31T00:38:00.875Z,17.21
2022-10-31T00:40:27.783Z,17.22
2022-10-31T00:42:54.436Z,17.20
2022-10-31T00:45:21.140Z,17.17
2022-10-31T00:47:48.027Z,17.25
2022-10-31T00:50:14.830Z,17.29
2022-10-31T00:52:41.581Z,17.32
2022-10-31T00:55:08.354Z,17.33
2022-10-31T00:57:34.992Z,17.35
2022-10-31T01:00:04.277Z,17.34
2022-10-31T01:02:31.140Z,17.34
2022-10-31T01:04:58.246Z,17.36
2022-10-31T01:07:25.195Z,17.36
2022-10-31T01:09:51.905Z,17.37
2022-10-31T01:12:19.898Z,17.36
2022-10-31T01:14:46.664Z,17.37
2022-10-31T01:17:14.233Z,17.39
2022-10-31T01:19:41.316Z,17.40
2022-10-31T01:22:08.065Z,17.41
2022-10-31T01:24:35.105Z,17.45
2022-10-31T01:27:02.690Z,17.52
2022-10-31T01:29:33.098Z,17.54
2022-10-31T01:31:59.815Z,17.60
2022-10-31T01:34:26.766Z,17.64
2022-10-31T01:36:54.493Z,17.67
2022-10-31T01:39:23.529Z,17.58
2022-10-31T01:41:53.436Z,17.44
2022-10-31T01:44:20.016Z,17.41
2022-10-31T01:46:52.604Z,17.38
2022-10-31T01:49:39.976Z,17.32
2022-10-31T01:52:28.075Z,17.29
2022-10-31T01:55:12.832Z,17.28
2022-10-31T01:57:42.518Z,17.25
2022-10-31T02:00:11.576Z,17.25
2022-10-31T02:02:41.431Z,17.22
2022-10-31T02:05:13.320Z,17.24
2022-10-31T02:07:49.110Z,17.17
2022-10-31T02:10:16.393Z,17.13
2022-10-31T02:12:44.620Z,17.03
2022-10-31T02:15:11.367Z,16.99
2022-10-31T02:17:38.235Z,16.93
2022-10-31T02:20:14.094Z,16.86
2022-10-31T02:23:06.856Z,16.84
2022-10-31T02:26:09.110Z,16.80
2022-10-31T02:28:59.894Z,16.70
2022-10-31T02:31:55.796Z,16.70
2022-10-31T02:34:35.425Z,16.68
2022-10-31T02:37:14.514Z,16.66
2022-10-31T02:39:54.680Z,16.69
2022-10-31T02:42:54.254Z,16.64
2022-10-31T02:45:24.010Z,16.64
2022-10-31T02:47:54.495Z,16.62
2022-10-31T02:50:28.094Z,16.64
2022-10-31T02:52:54.724Z,16.65
2022-10-31T02:55:26.188Z,16.63
2022-10-31T02:58:12.797Z,16.60
2022-10-31T03:00:53.737Z,16.62
2022-10-31T03:03:36.318Z,16.63
2022-10-31T03:06:09.891Z,16.66
2022-10-31T03:09:05.755Z,16.62
2022-10-31T03:11:45.654Z,16.60
2022-10-31T03:15:10.007Z,16.59
2022-10-31T03:17:54.710Z,16.56
2022-10-31T03:20:30.944Z,16.55
2022-10-31T03:22:59.708Z,16.54
2022-10-31T03:25:27.084Z,16.58
2022-10-31T03:27:59.111Z,16.63
2022-10-31T03:30:26.219Z,16.63
2022-10-31T03:33:00.629Z,16.62
2022-10-31T03:35:31.242Z,16.61
2022-10-31T03:38:05.433Z,16.62
2022-10-31T03:40:37.703Z,16.57
2022-10-31T03:43:10.246Z,16.62
2022-10-31T03:45:42.972Z,16.64
2022-10-31T03:48:09.961Z,16.69
2022-10-31T03:50:46.669Z,16.67
2022-10-31T03:53:23.528Z,16.64
2022-10-31T03:56:00.944Z,16.60
2022-10-31T03:58:44.272Z,16.64
2022-10-31T04:01:17.108Z,16.63
2022-10-31T04:03:45.450Z,16.59
2022-10-31T04:06:17.677Z,16.58
2022-10-31T04:09:00.540Z,16.53
2022-10-31T04:11:31.908Z,16.52
2022-10-31T04:14:17.294Z,16.50
2022-10-31T04:16:45.632Z,16.48
2022-10-31T04:19:13.445Z,16.40
2022-10-31T04:21:40.872Z,16.26
2022-10-31T04:24:07.968Z,16.19
2022-10-31T04:26:34.688Z,16.17
2022-10-31T04:29:01.490Z,16.21
2022-10-31T04:31:28.720Z,16.25
2022-10-31T04:33:55.432Z,16.25
2022-10-31T04:36:22.076Z,16.27
2022-10-31T04:38:48.824Z,16.32
2022-10-31T04:41:29.783Z,16.34
2022-10-31T04:44:01.353Z,16.32
2022-10-31T04:46:28.214Z,16.30
2022-10-31T04:48:57.547Z,16.34
2022-10-31T04:51:24.573Z,16.36
2022-10-31T04:53:51.867Z,16.38
2022-10-31T04:56:37.127Z,16.43
2022-10-31T04:59:10.887Z,16.40
2022-10-31T05:01:55.479Z,16.38
2022-10-31T05:04:39.007Z,16.44
2022-10-31T05:07:05.703Z,16.47
2022-10-31T05:09:32.407Z,16.49
2022-10-31T05:11:59.058Z,16.49
2022-10-31T05:14:47.648Z,16.51
2022-10-31T05:17:34.345Z,16.40
2022-10-31T05:20:24.207Z,16.42
2022-10-31T05:23:14.006Z,16.37
2022-10-31T05:25:42.037Z,16.41
2022-10-31T05:28:08.925Z,16.42
2022-10-31T05:30:36.174Z,16.44
2022-10-31T05:33:04.539Z,16.44
2022-10-31T05:35:51.531Z,16.43
2022-10-31T05:38:29.702Z,16.40
2022-10-31T05:41:02.840Z,16.37
2022-10-31T05:43:31.992Z,16.35
2022-10-31T05:45:59.618Z,16.22
2022-10-31T05:48:46.271Z,16.22
2022-10-31T05:51:41.928Z,16.26
2022-10-31T05:54:12.059Z,16.23
2022-10-31T05:56:43.927Z,16.24
2022-10-31T05:59:10.579Z,16.27
2022-10-31T06:01:37.378Z,16.26
2022-10-31T06:04:07.872Z,16.22
2022-10-31T06:06:36.356Z,16.22
2022-10-31T06:09:03.164Z,16.19
2022-10-31T06:11:33.350Z,16.12
2022-10-31T06:14:02.748Z,16.09
2022-10-31T06:16:40.709Z,16.11
2022-10-31T06:19:33.593Z,16.05
2022-10-31T06:22:00.247Z,16.08
2022-10-31T06:24:28.065Z,16.07
2022-10-31T06:26:54.742Z,16.13
2022-10-31T06:29:22.068Z,16.16
2022-10-31T06:32:01.655Z,16.17
2022-10-31T06:34:29.712Z,16.17
2022-10-31T06:36:56.427Z,16.17
2022-10-31T06:39:25.401Z,16.19
2022-10-31T06:41:53.552Z,16.20
2022-10-31T06:44:21.918Z,16.24
2022-10-31T06:46:54.235Z,16.23
2022-10-31T06:49:35.895Z,16.27
2022-10-31T06:52:08.131Z,16.30
2022-10-31T06:54:35.224Z,16.37
2022-10-31T06:57:03.100Z,16.45
2022-10-31T06:59:29.994Z,16.56
2022-10-31T07:02:12.303Z,16.68
2022-10-31T07:04:40.395Z,16.77
2022-10-31T07:07:07.937Z,16.82
2022-10-31T07:09:35.986Z,16.87
2022-10-31T07:12:04.613Z,16.95
2022-10-31T07:14:34.113Z,17.01
2022-10-31T07:17:01.620Z,17.09
2022-10-31T07:19:41.072Z,17.17
2022-10-31T07:22:08.645Z,17.23
2022-10-31T07:24:36.127Z,17.31
2022-10-31T07:27:42.968Z,17.35
2022-10-31T07:30:13.487Z,17.35
2022-10-31T07:32:42.004Z,17.40
2022-10-31T07:35:10.557Z,17.44
2022-10-31T07:37:46.899Z,17.44
2022-10-31T07:40:14.912Z,17.47
2022-10-31T07:42:52.551Z,17.49
2022-10-31T07:45:37.741Z,17.66
2022-10-31T07:48:23.162Z,17.70
2022-10-31T07:51:08.399Z,17.85
2022-10-31T07:53:53.485Z,17.98
2022-10-31T07:56:25.585Z,18.02
2022-10-31T07:58:52.704Z,18.13
2022-10-31T08:01:19.353Z,18.26
2022-10-31T08:03:58.881Z,18.35
2022-10-31T08:07:03.640Z,18.39
2022-10-31T08:09:34.898Z,18.46
2022-10-31T08:12:06.615Z,18.58
2022-10-31T08:14:34.552Z,18.70
2022-10-31T08:17:01.596Z,18.71
2022-10-31T08:19:37.021Z,18.82
2022-10-31T08:22:03.936Z,18.86
2022-10-31T08:24:30.684Z,18.88
2022-10-31T08:26:58.750Z,18.88
2022-10-31T08:29:25.612Z,19.05
2022-10-31T08:31:52.284Z,19.14
2022-10-31T08:34:37.388Z,19.15
2022-10-31T08:37:22.487Z,19.31
2022-10-31T08:39:53.513Z,19.26
2022-10-31T08:42:21.475Z,19.34
2022-10-31T08:44:48.180Z,19.33
2022-10-31T08:47:14.823Z,19.32
2022-10-31T08:49:41.497Z,19.41
2022-10-31T08:52:12.014Z,19.48
2022-10-31T08:54:41.450Z,19.52
2022-10-31T08:57:37.157Z,19.59
2022-10-31T09:00:05.274Z,19.64
2022-10-31T09:03:11.776Z,19.67
2022-10-31T09:05:38.776Z,19.69
2022-10-31T09:08:16.013Z,19.77
2022-10-31T09:10:45.059Z,19.87
2022-10-31T09:13:17.993Z,19.93
2022-10-31T09:16:03.428Z,20.13
2022-10-31T09:18:33.010Z,20.22
2022-10-31T09:21:01.770Z,20.24
2022-10-31T09:23:30.845Z,20.42
2022-10-31T09:26:00.884Z,20.58
2022-10-31T09:28:27.681Z,20.72
2022-10-31T09:30:58.266Z,20.90
2022-10-31T09:33:44.962Z,20.99
2022-10-31T09:36:41.012Z,21.38
2022-10-31T09:39:22.843Z,21.90
2022-10-31T09:42:03.399Z,22.43
2022-10-31T09:44:49.024Z,22.71
2022-10-31T09:47:41.761Z,23.02
2022-10-31T09:50:43.394Z,23.63
2022-10-31T09:53:43.604Z,24.20
2022-10-31T09:56:18.682Z,24.77
2022-10-31T09:58:56.284Z,25.12
2022-10-31T10:01:35.213Z,25.30
2022-10-31T10:04:28.315Z,25.29
2022-10-31T10:07:05.366Z,25.21
2022-10-31T10:09:44.906Z,24.99
2022-10-31T10:13:01.158Z,24.50
2022-10-31T10:15:37.174Z,24.15
2022-10-31T10:18:25.737Z,23.98
2022-10-31T10:21:23.521Z,23.74
2022-10-31T10:24:18.162Z,23.90
2022-10-31T10:26:55.930Z,23.75
2022-10-31T10:29:28.685Z,23.75
2022-10-31T10:31:58.957Z,23.84
2022-10-31T10:34:38.197Z,23.91
2022-10-31T10:37:22.951Z,24.00
2022-10-31T10:39:57.197Z,24.02
2022-10-31T10:42:46.467Z,23.94
2022-10-31T10:45:37.928Z,24.20
2022-10-31T10:48:12.773Z,24.29
2022-10-31T10:50:48.916Z,24.31
2022-10-31T10:53:32.769Z,24.36
2022-10-31T10:56:04.162Z,24.13
2022-10-31T10:58:31.208Z,23.99
2022-10-31T11:00:57.998Z,23.79
2022-10-31T11:03:24.698Z,23.57
2022-10-31T11:05:53.681Z,23.33
2022-10-31T11:08:34.597Z,23.09
2022-10-31T11:11:12.082Z,23.12
2022-10-31T11:13:42.521Z,23.01
2022-10-31T11:16:41.162Z,23.00
2022-10-31T11:19:24.583Z,23.05
2022-10-31T11:21:54.313Z,23.06
2022-10-31T11:24:27.139Z,23.12
2022-10-31T11:27:10.623Z,23.44
2022-10-31T11:29:37.781Z,23.39
2022-10-31T11:32:04.718Z,23.28
2022-10-31T11:34:38.249Z,23.12
2022-10-31T11:37:15.050Z,22.99
2022-10-31T11:39:44.577Z,22.79
2022-10-31T11:42:12.397Z,22.68
2022-10-31T11:44:43.520Z,22.80
2022-10-31T11:47:17.089Z,22.77
2022-10-31T11:49:47.129Z,22.79
2022-10-31T11:52:27.049Z,22.82
2022-10-31T11:54:59.281Z,22.91
2022-10-31T11:57:30.682Z,23.01
2022-10-31T12:00:04.505Z,23.08
2022-10-31T12:02:38.848Z,23.03
2022-10-31T12:05:12.419Z,23.00
2022-10-31T12:07:39.033Z,22.94
2022-10-31T12:10:12.708Z,22.98
2022-10-31T12:12:44.236Z,23.04
2022-10-31T12:15:29.268Z,22.99
2022-10-31T12:18:12.076Z,23.00
2022-10-31T12:20:48.574Z,23.05
2022-10-31T12:23:30.672Z,23.07
2022-10-31T12:26:08.186Z,23.20
2022-10-31T12:28:45.404Z,23.25
2022-10-31T12:31:29.062Z,23.50
2022-10-31T12:34:34.398Z,23.86
2022-10-31T12:37:16.568Z,24.05
2022-10-31T12:40:22.437Z,24.40
2022-10-31T12:43:19.854Z,24.65
2022-10-31T12:46:00.190Z,24.62
2022-10-31T12:48:46.004Z,24.52
2022-10-31T12:51:12.641Z,24.17
2022-10-31T12:54:05.876Z,23.91
2022-10-31T12:56:51.071Z,23.63
2022-10-31T12:59:41.493Z,23.51
2022-10-31T13:02:14.471Z,23.33
2022-10-31T13:04:59.155Z,23.28
2022-10-31T13:07:42.188Z,23.25
2022-10-31T13:10:19.388Z,23.38
2022-10-31T13:12:50.082Z,23.44
2022-10-31T13:15:23.540Z,23.44
2022-10-31T13:17:55.349Z,23.32
2022-10-31T13:20:28.111Z,23.22
2022-10-31T13:23:17.607Z,23.31
2022-10-31T13:25:55.015Z,23.39
2022-10-31T13:28:45.969Z,23.42
2022-10-31T13:31:12.958Z,23.37
2022-10-31T13:33:58.336Z,23.27
2022-10-31T13:36:55.574Z,23.20
2022-10-31T13:39:57.588Z,23.18
2022-10-31T13:42:41.731Z,23.03
2022-10-31T13:45:20.027Z,23.02
2022-10-31T13:48:19.630Z,23.22
2022-10-31T13:51:01.008Z,23.15
2022-10-31T13:53:36.548Z,23.07
2022-10-31T13:56:14.734Z,23.03
2022-10-31T13:59:03.332Z,22.98
2022-10-31T14:01:31.049Z,23.02
2022-10-31T14:04:11.030Z,23.11
2022-10-31T14:07:13.200Z,23.27
2022-10-31T14:09:51.586Z,23.22
2022-10-31T14:12:32.540Z,23.36
2022-10-31T14:15:13.702Z,23.43
2022-10-31T14:17:48.410Z,23.41
2022-10-31T14:20:15.099Z,23.14
2022-10-31T14:22:43.164Z,23.19
2022-10-31T14:25:45.233Z,23.22
2022-10-31T14:28:35.859Z,23.25
2022-10-31T14:31:02.836Z,23.40
2022-10-31T14:33:31.270Z,23.44
2022-10-31T14:36:24.703Z,23.44
2022-10-31T14:38:56.924Z,23.22
2022-10-31T14:42:14.791Z,23.01
2022-10-31T14:44:44.180Z,22.89
2022-10-31T14:47:19.750Z,22.83
2022-10-31T14:50:25.424Z,22.79
2022-10-31T14:52:56.989Z,22.78
2022-10-31T14:55:25.335Z,22.77
2022-10-31T14:57:56.838Z,22.74
2022-10-31T15:00:25.378Z,22.71
2022-10-31T15:03:07.014Z,22.60
2022-10-31T15:05:42.078Z,22.56
2022-10-31T15:08:46.764Z,22.53
2022-10-31T15:11:19.836Z,22.43
2022-10-31T15:13:50.782Z,22.39
2022-10-31T15:16:22.048Z,22.31
2022-10-31T15:18:52.967Z,22.30
2022-10-31T15:21:21.479Z,22.33
2022-10-31T15:23:49.595Z,22.30
2022-10-31T15:26:22.912Z,22.34
2022-10-31T15:29:05.584Z,22.27
2022-10-31T15:31:33.207Z,22.29
2022-10-31T15:34:06.351Z,22.23
2022-10-31T15:36:38.260Z,22.11
2022-10-31T15:39:05.641Z,22.09
2022-10-31T15:41:44.084Z,22.01
2022-10-31T15:44:20.667Z,21.98
2022-10-31T15:46:58.469Z,21.96
2022-10-31T15:49:41.719Z,21.77
2022-10-31T15:52:45.283Z,21.64
2022-10-31T15:55:21.970Z,21.65
2022-10-31T15:57:52.058Z,21.61
2022-10-31T16:00:25.991Z,21.50
2022-10-31T16:03:15.401Z,21.52
2022-10-31T16:05:48.045Z,21.48
2022-10-31T16:08:24.610Z,21.43
2022-10-31T16:10:51.312Z,21.37
2022-10-31T16:13:18.829Z,21.35
2022-10-31T16:16:03.775Z,21.31
2022-10-31T16:18:43.298Z,21.30
2022-10-31T16:21:11.553Z,21.25
2022-10-31T16:23:44.484Z,21.23
2022-10-31T16:26:17.795Z,21.15
2022-10-31T16:29:03.231Z,21.10
2022-10-31T16:31:39.186Z,21.04
2022-10-31T16:34:14.170Z,20.94
2022-10-31T16:36:41.065Z,20.89
2022-10-31T16:39:08.331Z,20.76
2022-10-31T16:41:43.038Z,20.66
2022-10-31T16:44:27.925Z,20.62
2022-10-31T16:47:15.488Z,20.59
2022-10-31T16:49:44.079Z,20.56
2022-10-31T16:52:10.891Z,20.52
2022-10-31T16:54:38.141Z,20.45
2022-10-31T16:57:06.263Z,20.41
2022-10-31T16:59:34.823Z,20.36
2022-10-31T17:02:03.784Z,20.35
2022-10-31T17:04:30.636Z,20.34
2022-10-31T17:06:57.298Z,20.30
2022-10-31T17:09:24.010Z,20.27
2022-10-31T17:11:53.823Z,20.22
2022-10-31T17:14:20.694Z,20.20
2022-10-31T17:16:47.434Z,20.18
2022-10-31T17:19:14.420Z,20.14
2022-10-31T17:21:41.493Z,20.12
2022-10-31T17:24:13.473Z,20.10
2022-10-31T17:26:40.326Z,20.08
2022-10-31T17:29:07.044Z,20.05
2022-10-31T17:31:36.656Z,19.99
2022-10-31T17:34:05.168Z,19.98
2022-10-31T17:36:35.398Z,19.94
2022-10-31T17:39:05.308Z,19.86
2022-10-31T17:41:32.039Z,19.84
2022-10-31T17:43:59.666Z,19.80
2022-10-31T17:46:28.294Z,19.77
2022-10-31T17:48:55.073Z,19.75
2022-10-31T17:51:21.856Z,19.73
2022-10-31T17:53:48.528Z,19.65
2022-10-31T17:56:15.157Z,19.63
2022-10-31T17:58:41.918Z,19.61
2022-10-31T18:01:10.930Z,19.56
2022-10-31T18:03:38.627Z,19.55
2022-10-31T18:06:05.949Z,19.52
2022-10-31T18:08:36.373Z,19.50
2022-10-31T18:11:15.830Z,19.46
2022-10-31T18:13:42.617Z,19.43
2022-10-31T18:16:11.191Z,19.36
2022-10-31T18:18:38.020Z,19.29
2022-10-31T18:21:05.055Z,19.28
2022-10-31T18:23:31.702Z,19.29
2022-10-31T18:25:58.429Z,19.21
2022-10-31T18:28:25.323Z,19.17
2022-10-31T18:30:52.029Z,19.16
2022-10-31T18:33:18.750Z,19.16
2022-10-31T18:35:46.158Z,19.14
2022-10-31T18:38:12.800Z,19.14
2022-10-31T18:40:39.445Z,19.10
2022-10-31T18:43:06.104Z,19.08
2022-10-31T18:45:46.044Z,19.05
2022-10-31T18:48:14.639Z,19.05
2022-10-31T18:50:42.217Z,19.00
2022-10-31T18:53:09.152Z,19.03
2022-10-31T18:55:41.534Z,19.03
2022-10-31T18:58:10.993Z,19.01
2022-10-31T19:00:38.577Z,19.02
2022-10-31T19:03:06.111Z,18.99
2022-10-31T19:05:32.921Z,18.97
2022-10-31T19:07:59.562Z,18.97
2022-10-31T19:10:26.289Z,18.91
2022-10-31T19:12:52.920Z,18.88
2022-10-31T19:15:19.615Z,18.86
2022-10-31T19:17:46.548Z,18.85
2022-10-31T19:20:14.039Z,18.80
2022-10-31T19:22:40.804Z,18.82
2022-10-31T19:25:10.464Z,18.87
2022-10-31T19:27:38.401Z,18.86
2022-10-31T19:30:06.295Z,18.85
2022-10-31T19:32:33.165Z,18.87
2022-10-31T19:34:59.885Z,18.86
2022-10-31T19:37:26.552Z,18.86
2022-10-31T19:39:53.168Z,18.91
2022-10-31T19:42:19.951Z,18.89
2022-10-31T19:44:46.591Z,18.89
2022-10-31T19:47:13.565Z,18.89
2022-10-31T19:49:40.206Z,18.88
2022-10-31T19:52:06.915Z,18.82
2022-10-31T19:54:33.529Z,18.78
2022-10-31T19:57:00.203Z,18.80
2022-10-31T19:59:26.885Z,18.77
2022-10-31T20:01:53.682Z,18.74
2022-10-31T20:04:20.444Z,18.73
2022-10-31T20:06:47.258Z,18.72
2022-10-31T20:09:14.643Z,18.72
2022-10-31T20:11:43.206Z,18.74
2022-10-31T20:14:12.716Z,18.79
2022-10-31T20:16:39.831Z,18.82
2022-10-31T20:19:06.661Z,18.83
2022-10-31T20:21:39.605Z,18.85
2022-10-31T20:24:08.441Z,18.79
2022-10-31T20:26:35.561Z,18.81
2022-10-31T20:29:03.658Z,18.86
2022-10-31T20:31:35.107Z,18.88
2022-10-31T20:34:02.458Z,18.90
2022-10-31T20:36:30.743Z,18.93
2022-10-31T20:38:58.558Z,18.92
2022-10-31T20:41:25.429Z,18.94
2022-10-31T20:43:52.644Z,18.92
2022-10-31T20:46:26.647Z,18.93
2022-10-31T20:48:54.437Z,18.94
2022-10-31T20:51:24.744Z,18.95
2022-10-31T20:53:52.585Z,18.99
2022-10-31T20:56:21.309Z,18.96
2022-10-31T20:58:48.763Z,19.00
2022-10-31T21:01:21.199Z,19.04
2022-10-31T21:03:48.343Z,19.06
2022-10-31T21:06:18.173Z,19.10
2022-10-31T21:08:45.586Z,19.11
2022-10-31T21:11:18.590Z,19.12
2022-10-31T21:13:46.516Z,19.15
2022-10-31T21:16:28.221Z,19.21
2022-10-31T21:18:55.236Z,19.24
2022-10-31T21:21:28.980Z,19.26
2022-10-31T21:24:01.802Z,19.27
2022-10-31T21:26:31.024Z,19.30
2022-10-31T21:28:58.815Z,19.31
2022-10-31T21:31:26.443Z,19.32
2022-10-31T21:33:53.099Z,19.34
2022-10-31T21:36:20.169Z,19.38
2022-10-31T21:38:54.033Z,19.41
2022-10-31T21:41:21.531Z,19.40
2022-10-31T21:43:50.123Z,19.42
2022-10-31T21:46:19.269Z,19.40
2022-10-31T21:48:46.340Z,19.43
2022-10-31T21:51:16.302Z,19.45
2022-10-31T21:54:01.688Z,19.46
2022-10-31T21:56:28.463Z,19.48
2022-10-31T21:58:55.837Z,19.49
2022-10-31T22:01:25.630Z,19.43
2022-10-31T22:03:52.801Z,19.52
2022-10-31T22:06:19.923Z,19.54
2022-10-31T22:08:47.321Z,19.51
2022-10-31T22:11:16.483Z,19.56
2022-10-31T22:13:45.467Z,19.62
2022-10-31T22:16:17.779Z,19.64
2022-10-31T22:18:45.379Z,19.68
2022-10-31T22:21:14.512Z,19.70
2022-10-31T22:23:42.231Z,19.71
2022-10-31T22:26:14.347Z,19.73
2022-10-31T22:28:42.796Z,19.75
2022-10-31T22:33:44.965Z,19.77
2022-10-31T22:36:13.828Z,19.74
2022-10-31T22:38:41.096Z,19.72
2022-10-31T22:41:09.937Z,19.66
2022-10-31T22:43:37.123Z,19.66
2022-10-31T22:46:06.276Z,19.61
2022-10-31T22:48:41.763Z,19.62
2022-10-31T22:51:17.295Z,19.61
2022-10-31T22:53:44.528Z,19.58
2022-10-31T22:56:14.591Z,19.56
2022-10-31T22:58:41.575Z,19.57
2022-10-31T23:01:10.876Z,19.54
2022-10-31T23:03:37.917Z,19.54
2022-10-31T23:06:06.438Z,19.52
2022-10-31T23:08:36.476Z,19.58
2022-10-31T23:11:13.969Z,19.56
2022-10-31T23:13:59.355Z,19.57
2022-10-31T23:16:26.111Z,19.55
2022-10-31T23:18:52.799Z,19.56
2022-10-31T23:21:38.133Z,19.52
2022-10-31T23:24:04.982Z,19.49
2022-10-31T23:26:50.378Z,19.45
2022-10-31T23:29:17.004Z,19.44
2022-10-31T23:31:43.649Z,19.43
2022-10-31T23:34:10.415Z,19.46
2022-10-31T23:36:37.148Z,19.44
2022-10-31T23:39:03.907Z,19.46
2022-10-31T23:41:30.620Z,19.41
2022-10-31T23:43:57.262Z,19.39
2022-10-31T23:46:23.947Z,19.48
2022-10-31T23:48:50.757Z,19.46
2022-10-31T23:51:17.509Z,19.48
2022-10-31T23:53:45.451Z,19.45
2022-10-31T23:56:13.040Z,19.42
2022-10-31T23:58:40.132Z,19.43
